This is the latest recevied weather packets stored in our database for station/object KJ5MET. If no packets are shown the sender has not sent any weather packets the latest 10 day(s).
| Time | Temp. | Humidity | Pressure | Rain* | Wind** | Luminosity | Snow |
|---|---|---|---|---|---|---|---|
| 1788049802 | 31.11° C | 74% | 1012.5 hPa | 0 mm | - | - | - |
| 1788049498 | 31.11° C | 73% | 1012.2 hPa | 0 mm | - | - | - |
| 1788049179 | 31.11° C | 72% | 1012.2 hPa | 0 mm | - | - | - |
| 1788048876 | 31.67° C | 71% | 1012.2 hPa | 0 mm | - | - | - |
| 1788048572 | 31.67° C | 71% | 1012.2 hPa | 0 mm | - | - | - |
| 1788048269 | 31.67° C | 71% | 1012.2 hPa | 0 mm | - | - | - |
| 1788047965 | 31.67° C | 71% | 1012.5 hPa | 0 mm | - | - | - |
| 1788047647 | 31.67° C | 70% | 1012.5 hPa | 0 mm | - | - | - |
| 1788047343 | 32.22° C | 69% | 1012.2 hPa | 0 mm | - | - | - |
| 1788047023 | 32.78° C | 70% | 1012.2 hPa | 0 mm | - | - | - |
| 1788046720 | 32.22° C | 70% | 1012.2 hPa | 0 mm | - | - | - |
| 1788046416 | 32.22° C | 68% | 1012.2 hPa | 0 mm | - | - | - |
| 1788046113 | 32.78° C | 66% | 1012.2 hPa | 0 mm | - | - | - |
| 1788045809 | 34.44° C | 55% | 1012.2 hPa | 0 mm | - | - | - |
| 1788045491 | 35.56° C | 52% | 1012.2 hPa | 0 mm | - | - | - |
| 1788045187 | 36.11° C | 51% | 1012.2 hPa | 0 mm | - | - | - |
| 1788044884 | 36.67° C | 50% | 1012.2 hPa | 0 mm | - | - | - |
| 1788044580 | 36.67° C | 50% | 1012.2 hPa | 0 mm | - | - | - |
| 1788044276 | 36.67° C | 50% | 1012.2 hPa | 0 mm | - | - | - |
| 1788043973 | 35.56° C | 52% | 1012.2 hPa | 0 mm | - | - | - |
| 1788043669 | 35.56° C | 53% | 1012.2 hPa | 0 mm | - | - | - |
| 1788043366 | 35.56° C | 51% | 1012.2 hPa | 0 mm | - | - | - |
| 1788043062 | 36.11° C | 51% | 1012.2 hPa | 0 mm | - | - | - |
| 1788042758 | 35° C | 54% | 1012.2 hPa | 0 mm | - | - | - |
| 1788042454 | 35.56° C | 52% | 1012.2 hPa | 0 mm | - | - | - |
* Rain latest hour (hover to see other rain measurements)
** Current wind speed in m/s (hover to see current wind gust speed)